Time,TemperatureF,DewpointF,PressureIn,WindDirection,WindDirectionDegrees,WindSpeedMPH,WindSpeedGustMPH,Humidity,HourlyPrecipIn,Conditions,Clouds,dailyrainin,SoftwareType,DateUTC
2013-05-17 00:01:00,64.8,58.5,30.16,SSE,165,0.0,0.0,80,0.00,,,0.00,Wunderground v.1.13,2013-05-17 04:01:00,
2013-05-17 00:02:00,64.8,58.5,30.16,SSE,165,0.0,0.0,80,0.00,,,0.00,Wunderground v.1.13,2013-05-17 04:02:00,
2013-05-17 00:04:00,64.8,58.1,30.16,SSE,165,0.0,0.0,79,0.00,,,0.00,Wunderground v.1.13,2013-05-17 04:04:00,
2013-05-17 00:06:00,64.9,58.2,30.16,SSE,165,0.0,0.0,79,0.00,,,0.00,Wunderground v.1.13,2013-05-17 04:06:00,
2013-05-17 00:08:00,64.9,58.2,30.16,SSE,165,0.0,0.0,79,0.00,,,0.00,Wunderground v.1.13,2013-05-17 04:08:00,
2013-05-17 00:13:00,64.9,58.2,30.16,SSE,165,0.0,0.0,79,0.00,,,0.00,Wunderground v.1.13,2013-05-17 04:13:00,
2013-05-17 00:19:00,64.9,58.2,30.16,SSE,165,0.0,0.0,79,0.00,,,0.00,Wunderground v.1.13,2013-05-17 04:19:00,
2013-05-17 00:24:00,64.9,58.2,30.16,SSE,165,0.0,0.0,79,0.00,,,0.00,Wunderground v.1.13,2013-05-17 04:24:00,
2013-05-17 00:29:00,64.8,58.1,30.16,SSE,165,0.0,0.0,79,0.00,,,0.00,Wunderground v.1.13,2013-05-17 04:29:00,
2013-05-17 00:34:00,64.8,58.1,30.16,SSE,165,0.0,0.0,79,0.00,,,0.00,Wunderground v.1.13,2013-05-17 04:34:00,
2013-05-17 00:40:00,64.7,58.0,30.16,SSE,165,0.0,0.0,79,0.00,,,0.00,Wunderground v.1.13,2013-05-17 04:40:00,
2013-05-17 00:45:00,64.7,58.0,30.16,SSE,165,0.0,0.0,79,0.00,,,0.00,Wunderground v.1.13,2013-05-17 04:45:00,
2013-05-17 00:50:00,64.6,58.3,30.16,SSE,165,0.0,0.0,80,0.00,,,0.00,Wunderground v.1.13,2013-05-17 04:50:00,
2013-05-17 00:55:00,64.5,58.2,30.16,SSE,165,0.0,0.0,80,0.00,,,0.00,Wunderground v.1.13,2013-05-17 04:55:00,
2013-05-17 01:00:00,64.4,58.1,30.16,SSE,165,0.0,0.0,80,0.00,,,0.00,Wunderground v.1.13,2013-05-17 05:00:00,
2013-05-17 01:05:00,64.3,58.3,30.16,SSE,165,0.0,0.0,81,0.00,,,0.00,Wunderground v.1.13,2013-05-17 05:05:00,
2013-05-17 01:11:00,64.3,58.3,30.15,SSE,165,0.0,0.0,81,0.00,,,0.00,Wunderground v.1.13,2013-05-17 05:11:00,
2013-05-17 01:16:00,64.3,58.3,30.15,SSE,165,0.0,0.0,81,0.00,,,0.00,Wunderground v.1.13,2013-05-17 05:16:00,
2013-05-17 01:21:00,64.4,58.4,30.15,SSE,165,0.0,0.0,81,0.00,,,0.00,Wunderground v.1.13,2013-05-17 05:21:00,
2013-05-17 01:27:00,64.4,58.4,30.15,SSE,165,0.0,0.0,81,0.00,,,0.00,Wunderground v.1.13,2013-05-17 05:27:00,
2013-05-17 01:32:00,64.4,58.4,30.15,SSE,165,0.0,0.0,81,0.00,,,0.00,Wunderground v.1.13,2013-05-17 05:32:00,
2013-05-17 01:37:00,64.3,58.3,30.15,SSE,165,0.0,0.0,81,0.00,,,0.00,Wunderground v.1.13,2013-05-17 05:37:00,
2013-05-17 01:42:00,64.3,58.3,30.15,SSE,165,0.0,0.0,81,0.00,,,0.00,Wunderground v.1.13,2013-05-17 05:42:00,
2013-05-17 01:48:00,64.2,58.2,30.15,SSE,165,0.0,0.0,81,0.00,,,0.00,Wunderground v.1.13,2013-05-17 05:48:00,
2013-05-17 01:53:00,64.1,58.1,30.15,SSE,165,0.0,0.0,81,0.00,,,0.00,Wunderground v.1.13,2013-05-17 05:53:00,
2013-05-17 01:58:00,64.0,58.1,30.15,SSE,165,0.0,0.0,81,0.00,,,0.00,Wunderground v.1.13,2013-05-17 05:58:00,
2013-05-17 02:03:00,63.8,57.9,30.15,SSE,165,0.0,0.0,81,0.00,,,0.00,Wunderground v.1.13,2013-05-17 06:03:00,
2013-05-17 02:08:00,63.7,58.1,30.15,SSE,165,0.0,0.0,82,0.00,,,0.00,Wunderground v.1.13,2013-05-17 06:08:00,
2013-05-17 02:13:00,63.6,58.0,30.15,SSE,165,0.0,0.0,82,0.00,,,0.00,Wunderground v.1.13,2013-05-17 06:13:00,
2013-05-17 02:18:00,63.5,57.9,30.15,SSE,165,0.0,0.0,82,0.00,,,0.00,Wunderground v.1.13,2013-05-17 06:18:00,
2013-05-17 02:23:00,63.5,57.9,30.15,SSE,165,0.0,0.0,82,0.00,,,0.00,Wunderground v.1.13,2013-05-17 06:23:00,
2013-05-17 02:28:00,63.5,57.9,30.15,SSE,165,0.0,0.0,82,0.00,,,0.00,Wunderground v.1.13,2013-05-17 06:28:00,
2013-05-17 02:33:00,63.6,58.0,30.15,SSE,165,0.0,0.0,82,0.00,,,0.00,Wunderground v.1.13,2013-05-17 06:33:00,
2013-05-17 02:38:00,63.6,58.0,30.15,SSE,165,0.0,0.0,82,0.00,,,0.00,Wunderground v.1.13,2013-05-17 06:38:00,
2013-05-17 02:43:00,63.5,57.9,30.15,SSE,165,0.0,0.0,82,0.00,,,0.00,Wunderground v.1.13,2013-05-17 06:43:00,
2013-05-17 02:48:00,63.5,57.6,30.15,SSE,165,0.0,0.0,81,0.00,,,0.00,Wunderground v.1.13,2013-05-17 06:48:00,
2013-05-17 02:53:00,63.4,57.5,30.15,SSE,165,0.0,0.0,81,0.00,,,0.00,Wunderground v.1.13,2013-05-17 06:53:00,
2013-05-17 02:58:00,63.5,57.2,30.15,SSE,165,0.0,0.0,80,0.00,,,0.00,Wunderground v.1.13,2013-05-17 06:58:00,
2013-05-17 03:03:00,63.5,56.5,30.15,SSE,165,0.0,0.0,78,0.00,,,0.00,Wunderground v.1.13,2013-05-17 07:03:00,
2013-05-17 03:08:00,63.7,56.4,30.15,SSE,165,0.0,0.0,77,0.00,,,0.00,Wunderground v.1.13,2013-05-17 07:08:00,
2013-05-17 03:13:00,63.8,56.1,30.15,SSE,165,0.0,0.0,76,0.00,,,0.00,Wunderground v.1.13,2013-05-17 07:13:00,
2013-05-17 03:18:00,64.0,55.9,30.15,SSE,165,0.0,0.0,75,0.00,,,0.00,Wunderground v.1.13,2013-05-17 07:18:00,
2013-05-17 03:23:00,64.2,56.1,30.16,SSE,165,0.0,0.0,75,0.00,,,0.00,Wunderground v.1.13,2013-05-17 07:23:00,
2013-05-17 03:28:00,64.3,55.8,30.16,SSE,165,0.0,0.0,74,0.00,,,0.00,Wunderground v.1.13,2013-05-17 07:28:00,
2013-05-17 03:33:00,64.3,55.8,30.15,SSE,165,0.0,0.0,74,0.00,,,0.00,Wunderground v.1.13,2013-05-17 07:33:00,
2013-05-17 03:38:00,64.3,55.8,30.15,SSE,165,0.0,0.0,74,0.00,,,0.00,Wunderground v.1.13,2013-05-17 07:38:00,
2013-05-17 03:44:00,64.3,55.5,30.16,SSE,165,0.0,0.0,73,0.00,,,0.00,Wunderground v.1.13,2013-05-17 07:44:00,
2013-05-17 03:49:00,64.3,55.5,30.16,SSE,165,0.0,0.0,73,0.00,,,0.00,Wunderground v.1.13,2013-05-17 07:49:00,
2013-05-17 03:54:00,64.2,55.4,30.16,SSE,165,0.0,0.0,73,0.00,,,0.00,Wunderground v.1.13,2013-05-17 07:54:00,
2013-05-17 03:59:00,64.2,55.4,30.15,SSE,165,0.0,0.0,73,0.00,,,0.00,Wunderground v.1.13,2013-05-17 07:59:00,
2013-05-17 04:04:00,64.2,55.0,30.16,SSE,165,0.0,0.0,72,0.00,,,0.00,Wunderground v.1.13,2013-05-17 08:04:00,
2013-05-17 04:09:00,64.2,55.4,30.16,SSE,165,0.0,0.0,73,0.00,,,0.00,Wunderground v.1.13,2013-05-17 08:09:00,
2013-05-17 04:14:00,64.3,55.1,30.16,SSE,165,0.0,0.0,72,0.00,,,0.00,Wunderground v.1.13,2013-05-17 08:14:00,
2013-05-17 04:19:00,64.4,55.2,30.16,SSE,165,0.0,0.0,72,0.00,,,0.00,Wunderground v.1.13,2013-05-17 08:19:00,
2013-05-17 04:24:00,64.4,55.2,30.16,SSE,165,0.0,0.0,72,0.00,,,0.00,Wunderground v.1.13,2013-05-17 08:24:00,
2013-05-17 04:29:00,64.5,55.3,30.16,SSE,165,0.0,0.0,72,0.00,,,0.00,Wunderground v.1.13,2013-05-17 08:29:00,
2013-05-17 04:34:00,64.5,55.3,30.16,SSE,165,0.0,0.0,72,0.00,,,0.00,Wunderground v.1.13,2013-05-17 08:34:00,
2013-05-17 04:39:00,64.5,55.3,30.16,SSE,165,0.0,0.0,72,0.00,,,0.00,Wunderground v.1.13,2013-05-17 08:39:00,
2013-05-17 04:44:00,64.5,55.3,30.16,SSE,165,0.0,0.0,72,0.00,,,0.00,Wunderground v.1.13,2013-05-17 08:44:00,
2013-05-17 04:50:00,64.5,56.0,30.16,SSE,165,0.0,0.0,74,0.00,,,0.00,Wunderground v.1.13,2013-05-17 08:50:00,
2013-05-17 04:55:00,64.4,55.6,30.16,SSE,165,0.0,0.0,73,0.00,,,0.00,Wunderground v.1.13,2013-05-17 08:55:00,
2013-05-17 05:00:00,64.3,55.5,30.16,SSE,165,0.0,0.0,73,0.00,,,0.00,Wunderground v.1.13,2013-05-17 09:00:00,
2013-05-17 05:05:00,64.3,56.6,30.17,SSE,165,0.0,0.0,76,0.00,,,0.00,Wunderground v.1.13,2013-05-17 09:05:00,
2013-05-17 05:10:00,64.0,56.3,30.17,SSE,165,0.0,0.0,76,0.00,,,0.00,Wunderground v.1.13,2013-05-17 09:10:00,
2013-05-17 05:15:00,63.9,56.5,30.17,SSE,165,0.0,0.0,77,0.00,,,0.00,Wunderground v.1.13,2013-05-17 09:15:00,
2013-05-17 05:20:00,63.6,56.3,30.17,SSE,165,0.0,0.0,77,0.00,,,0.00,Wunderground v.1.13,2013-05-17 09:20:00,
2013-05-17 05:25:00,63.4,55.7,30.17,SSE,165,0.0,0.0,76,0.00,,,0.00,Wunderground v.1.13,2013-05-17 09:25:00,
2013-05-17 05:30:00,63.2,55.1,30.17,SSE,165,0.0,0.0,75,0.00,,,0.00,Wunderground v.1.13,2013-05-17 09:30:00,
2013-05-17 05:35:00,63.2,55.1,30.17,SSE,165,0.0,0.0,75,0.00,,,0.00,Wunderground v.1.13,2013-05-17 09:35:00,
2013-05-17 05:40:00,63.2,55.5,30.18,SSE,165,0.0,0.0,76,0.00,,,0.00,Wunderground v.1.13,2013-05-17 09:40:00,
2013-05-17 05:45:00,63.1,55.8,30.17,SSE,165,0.0,0.0,77,0.00,,,0.00,Wunderground v.1.13,2013-05-17 09:45:00,
2013-05-17 05:50:00,63.0,55.7,30.17,SSE,165,0.0,0.0,77,0.00,,,0.00,Wunderground v.1.13,2013-05-17 09:50:00,
2013-05-17 05:55:00,62.9,55.6,30.18,SSE,165,0.0,0.0,77,0.00,,,0.00,Wunderground v.1.13,2013-05-17 09:55:00,
2013-05-17 06:00:00,62.8,55.5,30.18,SSE,165,0.0,0.0,77,0.00,,,0.00,Wunderground v.1.13,2013-05-17 10:00:00,
2013-05-17 06:05:00,62.6,55.6,30.18,SSE,165,0.0,0.0,78,0.00,,,0.00,Wunderground v.1.13,2013-05-17 10:05:00,
2013-05-17 06:10:00,62.5,55.5,30.18,SSE,165,0.0,0.0,78,0.00,,,0.00,Wunderground v.1.13,2013-05-17 10:10:00,
2013-05-17 06:15:00,62.4,55.1,30.18,SSE,165,0.0,0.0,77,0.00,,,0.00,Wunderground v.1.13,2013-05-17 10:15:00,
2013-05-17 06:20:00,62.2,55.3,30.18,SSE,165,0.0,0.0,78,0.00,,,0.00,Wunderground v.1.13,2013-05-17 10:20:00,
2013-05-17 06:25:00,62.1,55.2,30.18,SSE,165,0.0,0.0,78,0.00,,,0.00,Wunderground v.1.13,2013-05-17 10:25:00,
2013-05-17 06:30:00,62.0,55.4,30.18,SSE,165,0.0,0.0,79,0.00,,,0.00,Wunderground v.1.13,2013-05-17 10:30:00,
2013-05-17 06:35:00,61.9,55.3,30.19,SSE,165,0.0,0.0,79,0.00,,,0.00,Wunderground v.1.13,2013-05-17 10:35:00,
2013-05-17 06:40:00,61.8,55.6,30.19,SSE,165,0.0,0.0,80,0.00,,,0.00,Wunderground v.1.13,2013-05-17 10:40:00,
2013-05-17 06:45:00,61.5,55.3,30.19,SSE,165,0.0,0.0,80,0.00,,,0.00,Wunderground v.1.13,2013-05-17 10:45:00,
2013-05-17 06:50:00,61.4,54.8,30.19,SSE,165,0.0,0.0,79,0.00,,,0.00,Wunderground v.1.13,2013-05-17 10:50:00,
2013-05-17 06:55:00,61.4,55.2,30.19,SSE,165,0.0,0.0,80,0.00,,,0.00,Wunderground v.1.13,2013-05-17 10:55:00,
2013-05-17 07:00:00,61.5,55.3,30.19,SSE,165,0.0,0.0,80,0.00,,,0.00,Wunderground v.1.13,2013-05-17 11:00:00,
2013-05-17 07:05:00,61.4,55.5,30.20,SSE,165,0.0,0.0,81,0.00,,,0.00,Wunderground v.1.13,2013-05-17 11:05:00,
2013-05-17 07:10:00,61.3,55.4,30.20,SSE,165,0.0,0.0,81,0.00,,,0.00,Wunderground v.1.13,2013-05-17 11:10:00,
2013-05-17 07:15:00,61.2,55.3,30.20,SSE,165,0.0,0.0,81,0.00,,,0.00,Wunderground v.1.13,2013-05-17 11:15:00,
2013-05-17 07:20:00,61.2,55.3,30.20,SSE,165,0.0,0.0,81,0.00,,,0.00,Wunderground v.1.13,2013-05-17 11:20:00,
2013-05-17 07:26:00,61.2,55.3,30.20,SSE,165,0.0,0.0,81,0.00,,,0.00,Wunderground v.1.13,2013-05-17 11:26:00,
2013-05-17 07:31:00,61.2,55.3,30.20,SSE,165,0.0,0.0,81,0.00,,,0.00,Wunderground v.1.13,2013-05-17 11:31:00,
2013-05-17 07:36:00,61.2,55.3,30.20,SSE,165,0.0,0.0,81,0.00,,,0.00,Wunderground v.1.13,2013-05-17 11:36:00,
2013-05-17 07:41:00,61.3,55.4,30.20,SSE,165,0.0,0.0,81,0.00,,,0.00,Wunderground v.1.13,2013-05-17 11:41:00,
2013-05-17 07:46:00,61.3,55.8,30.20,SSE,165,0.0,0.0,82,0.00,,,0.00,Wunderground v.1.13,2013-05-17 11:46:00,
2013-05-17 07:51:00,61.3,56.1,30.20,SSE,165,0.0,0.0,83,0.00,,,0.00,Wunderground v.1.13,2013-05-17 11:51:00,
2013-05-17 07:56:00,61.3,56.4,30.20,SSE,165,0.0,0.0,84,0.00,,,0.00,Wunderground v.1.13,2013-05-17 11:56:00,
2013-05-17 08:01:00,61.1,56.2,30.20,SSE,165,0.0,0.0,84,0.00,,,0.00,Wunderground v.1.13,2013-05-17 12:01:00,
2013-05-17 08:06:00,61.0,55.5,30.20,SSE,165,0.0,0.0,82,0.00,,,0.00,Wunderground v.1.13,2013-05-17 12:06:00,
2013-05-17 08:11:00,61.1,55.9,30.20,SSE,165,0.0,0.0,83,0.00,,,0.00,Wunderground v.1.13,2013-05-17 12:11:00,
2013-05-17 08:16:00,61.2,56.3,30.20,SSE,165,0.0,0.0,84,0.00,,,0.00,Wunderground v.1.13,2013-05-17 12:16:00,
2013-05-17 08:21:00,61.3,56.4,30.21,SSE,165,0.0,0.0,84,0.00,,,0.00,Wunderground v.1.13,2013-05-17 12:21:00,
2013-05-17 08:26:00,61.4,56.2,30.21,SSE,165,0.0,0.0,83,0.00,,,0.00,Wunderground v.1.13,2013-05-17 12:26:00,
2013-05-17 08:31:00,61.6,56.7,30.20,SSE,165,0.0,0.0,84,0.00,,,0.00,Wunderground v.1.13,2013-05-17 12:31:00,
2013-05-17 08:36:00,61.8,57.6,30.21,SSE,165,0.0,0.0,86,0.00,,,0.00,Wunderground v.1.13,2013-05-17 12:36:00,
2013-05-17 08:41:00,62.0,58.1,30.21,SSE,165,0.0,0.0,87,0.00,,,0.00,Wunderground v.1.13,2013-05-17 12:41:00,
2013-05-17 08:46:00,62.2,58.3,30.21,SSE,165,0.0,0.0,87,0.00,,,0.00,Wunderground v.1.13,2013-05-17 12:46:00,
2013-05-17 08:51:00,62.4,58.2,30.21,SSE,165,0.0,0.0,86,0.00,,,0.00,Wunderground v.1.13,2013-05-17 12:51:00,
2013-05-17 08:56:00,62.8,58.9,30.21,SSE,165,0.0,0.0,87,0.00,,,0.00,Wunderground v.1.13,2013-05-17 12:56:00,
2013-05-17 09:01:00,63.2,59.3,30.21,SSE,165,0.0,0.0,87,0.00,,,0.00,Wunderground v.1.13,2013-05-17 13:01:00,
2013-05-17 09:06:00,63.7,59.8,30.21,SSE,165,0.0,0.0,87,0.00,,,0.00,Wunderground v.1.13,2013-05-17 13:06:00,
2013-05-17 09:12:00,64.3,60.3,30.21,SSE,165,0.0,0.0,87,0.00,,,0.00,Wunderground v.1.13,2013-05-17 13:12:00,
2013-05-17 09:17:00,64.9,60.6,30.21,SSE,165,0.0,0.0,86,0.00,,,0.00,Wunderground v.1.13,2013-05-17 13:17:00,
2013-05-17 09:22:00,65.3,60.7,30.22,SSE,165,0.0,0.0,85,0.00,,,0.00,Wunderground v.1.13,2013-05-17 13:22:00,
2013-05-17 09:27:00,65.7,61.1,30.22,SSE,165,0.0,0.0,85,0.00,,,0.00,Wunderground v.1.13,2013-05-17 13:27:00,
2013-05-17 09:32:00,66.0,60.7,30.22,SSE,165,0.0,0.0,83,0.00,,,0.00,Wunderground v.1.13,2013-05-17 13:32:00,
2013-05-17 09:37:00,66.4,61.8,30.22,SSE,165,0.0,0.0,85,0.00,,,0.00,Wunderground v.1.13,2013-05-17 13:37:00,
2013-05-17 09:42:00,66.7,62.0,30.22,SSE,165,0.0,0.0,85,0.00,,,0.00,Wunderground v.1.13,2013-05-17 13:42:00,
2013-05-17 09:47:00,67.0,62.0,30.22,SSE,165,0.0,0.0,84,0.00,,,0.00,Wunderground v.1.13,2013-05-17 13:47:00,
2013-05-17 09:52:00,67.3,62.3,30.22,SSE,165,0.0,0.0,84,0.00,,,0.00,Wunderground v.1.13,2013-05-17 13:52:00,
2013-05-17 09:57:00,67.6,62.3,30.22,SSE,165,0.0,0.0,83,0.00,,,0.00,Wunderground v.1.13,2013-05-17 13:57:00,
2013-05-17 10:02:00,67.8,62.1,30.22,SSE,165,0.0,0.0,82,0.00,,,0.00,Wunderground v.1.13,2013-05-17 14:02:00,
2013-05-17 10:07:00,68.0,62.3,30.22,SSE,165,0.0,0.0,82,0.00,,,0.00,Wunderground v.1.13,2013-05-17 14:07:00,
2013-05-17 10:12:00,68.3,62.9,30.22,SSE,165,0.0,0.0,83,0.00,,,0.00,Wunderground v.1.13,2013-05-17 14:12:00,
2013-05-17 10:17:00,68.5,61.7,30.22,SSE,165,0.0,0.0,79,0.00,,,0.00,Wunderground v.1.13,2013-05-17 14:17:00,
2013-05-17 10:22:00,68.6,60.4,30.22,South,191,0.0,0.0,75,0.00,,,0.00,Wunderground v.1.13,2013-05-17 14:22:00,
2013-05-17 10:27:00,68.8,60.9,30.22,South,190,0.0,0.0,76,0.00,,,0.00,Wunderground v.1.13,2013-05-17 14:27:00,
2013-05-17 10:32:00,69.1,61.2,30.22,South,190,0.0,0.0,76,0.00,,,0.00,Wunderground v.1.13,2013-05-17 14:32:00,
2013-05-17 10:37:00,69.3,60.7,30.23,South,190,0.0,0.0,74,0.00,,,0.00,Wunderground v.1.13,2013-05-17 14:37:00,
2013-05-17 10:42:00,69.6,61.7,30.23,South,190,0.0,0.0,76,0.00,,,0.00,Wunderground v.1.13,2013-05-17 14:42:00,
2013-05-17 10:47:00,69.9,61.6,30.23,South,190,0.0,0.0,75,0.00,,,0.00,Wunderground v.1.13,2013-05-17 14:47:00,
2013-05-17 10:52:00,70.0,61.7,30.23,South,190,0.0,1.0,75,0.00,,,0.00,Wunderground v.1.13,2013-05-17 14:52:00,
2013-05-17 10:57:00,70.2,60.7,30.23,South,190,0.0,0.0,72,0.00,,,0.00,Wunderground v.1.13,2013-05-17 14:57:00,
2013-05-17 11:02:00,70.3,61.6,30.23,South,190,0.0,0.0,74,0.00,,,0.00,Wunderground v.1.13,2013-05-17 15:02:00,
2013-05-17 11:07:00,70.5,61.4,30.23,South,190,0.0,0.0,73,0.00,,,0.00,Wunderground v.1.13,2013-05-17 15:07:00,
2013-05-17 11:12:00,70.7,60.0,30.23,South,190,0.0,0.0,69,0.00,,,0.00,Wunderground v.1.13,2013-05-17 15:12:00,
2013-05-17 11:18:00,70.6,60.3,30.23,South,190,0.0,0.0,70,0.00,,,0.00,Wunderground v.1.13,2013-05-17 15:18:00,
2013-05-17 11:23:00,70.7,61.6,30.23,South,190,0.0,0.0,73,0.00,,,0.00,Wunderground v.1.13,2013-05-17 15:23:00,
2013-05-17 11:28:00,71.0,60.3,30.23,South,190,0.0,2.0,69,0.00,,,0.00,Wunderground v.1.13,2013-05-17 15:28:00,
2013-05-17 11:33:00,71.3,61.4,30.23,South,190,0.0,0.0,71,0.00,,,0.00,Wunderground v.1.13,2013-05-17 15:33:00,
2013-05-17 11:38:00,71.5,60.4,30.23,South,190,0.0,1.0,68,0.00,,,0.00,Wunderground v.1.13,2013-05-17 15:38:00,
2013-05-17 11:43:00,71.6,60.9,30.23,South,190,0.0,0.0,69,0.00,,,0.00,Wunderground v.1.13,2013-05-17 15:43:00,
2013-05-17 11:48:00,71.6,61.3,30.23,South,190,0.0,1.0,70,0.00,,,0.00,Wunderground v.1.13,2013-05-17 15:48:00,
2013-05-17 11:53:00,71.6,61.7,30.23,South,190,0.0,0.0,71,0.00,,,0.00,Wunderground v.1.13,2013-05-17 15:53:00,
2013-05-17 11:58:00,71.5,60.8,30.22,South,190,0.0,1.0,69,0.00,,,0.00,Wunderground v.1.13,2013-05-17 15:58:00,
2013-05-17 12:03:00,71.5,62.0,30.22,South,190,0.0,0.0,72,0.00,,,0.00,Wunderground v.1.13,2013-05-17 16:03:00,
2013-05-17 12:08:00,71.6,61.7,30.22,South,190,0.0,1.0,71,0.00,,,0.00,Wunderground v.1.13,2013-05-17 16:08:00,
2013-05-17 12:13:00,71.6,60.9,30.22,South,190,0.0,2.0,69,0.00,,,0.00,Wunderground v.1.13,2013-05-17 16:13:00,
2013-05-17 12:18:00,71.9,62.0,30.22,South,190,0.0,0.0,71,0.00,,,0.00,Wunderground v.1.13,2013-05-17 16:18:00,
2013-05-17 12:23:00,72.9,61.7,30.22,SSW,209,0.0,4.0,68,0.00,,,0.00,Wunderground v.1.13,2013-05-17 16:23:00,
2013-05-17 12:28:00,73.0,61.8,30.22,South,189,0.0,0.0,68,0.00,,,0.00,Wunderground v.1.13,2013-05-17 16:28:00,
2013-05-17 12:33:00,73.3,61.7,30.21,South,188,0.0,1.0,67,0.00,,,0.00,Wunderground v.1.13,2013-05-17 16:33:00,
2013-05-17 12:38:00,73.6,61.1,30.21,South,188,0.0,0.0,65,0.00,,,0.00,Wunderground v.1.13,2013-05-17 16:38:00,
2013-05-17 12:43:00,73.9,60.1,30.21,South,172,0.0,3.0,62,0.00,,,0.00,Wunderground v.1.13,2013-05-17 16:43:00,
2013-05-17 12:48:00,73.8,60.9,30.21,South,172,0.0,1.0,64,0.00,,,0.00,Wunderground v.1.13,2013-05-17 16:48:00,
2013-05-17 12:53:00,74.0,61.9,30.21,South,172,0.0,0.0,66,0.00,,,0.00,Wunderground v.1.13,2013-05-17 16:53:00,
2013-05-17 12:58:00,74.4,62.7,30.21,South,172,0.0,0.0,67,0.00,,,0.00,Wunderground v.1.13,2013-05-17 16:58:00,
2013-05-17 13:03:00,74.6,61.6,30.21,South,172,0.0,0.0,64,0.00,,,0.00,Wunderground v.1.13,2013-05-17 17:03:00,
2013-05-17 13:08:00,74.8,62.7,30.21,South,172,0.0,0.0,66,0.00,,,0.00,Wunderground v.1.13,2013-05-17 17:08:00,
2013-05-17 13:13:00,74.6,62.1,30.21,South,172,0.0,0.0,65,0.00,,,0.00,Wunderground v.1.13,2013-05-17 17:13:00,
2013-05-17 13:19:00,74.5,62.4,30.21,South,172,0.0,0.0,66,0.00,,,0.00,Wunderground v.1.13,2013-05-17 17:19:00,
2013-05-17 13:24:00,74.4,62.3,30.20,South,172,0.0,0.0,66,0.00,,,0.00,Wunderground v.1.13,2013-05-17 17:24:00,
2013-05-17 13:29:00,74.1,62.9,30.20,South,172,0.0,0.0,68,0.00,,,0.00,Wunderground v.1.13,2013-05-17 17:29:00,
2013-05-17 13:34:00,74.1,63.7,30.20,South,172,0.0,0.0,70,0.00,,,0.00,Wunderground v.1.13,2013-05-17 17:34:00,
2013-05-17 13:39:00,74.3,60.4,30.20,South,172,0.0,0.0,62,0.00,,,0.00,Wunderground v.1.13,2013-05-17 17:39:00,
2013-05-17 13:44:00,74.8,63.1,30.19,South,172,0.0,1.0,67,0.00,,,0.00,Wunderground v.1.13,2013-05-17 17:44:00,
2013-05-17 13:49:00,75.3,60.0,30.19,South,172,0.0,1.0,59,0.00,,,0.00,Wunderground v.1.13,2013-05-17 17:49:00,
2013-05-17 13:54:00,76.1,63.0,30.19,South,172,0.0,1.0,64,0.00,,,0.00,Wunderground v.1.13,2013-05-17 17:54:00,
2013-05-17 13:59:00,77.2,62.2,30.19,SSE,153,0.0,1.0,60,0.00,,,0.00,Wunderground v.1.13,2013-05-17 17:59:00,
2013-05-17 14:04:00,77.5,60.1,30.19,SSE,160,0.0,2.0,55,0.00,,,0.00,Wunderground v.1.13,2013-05-17 18:04:00,
2013-05-17 14:09:00,77.6,61.2,30.19,SSE,164,0.0,3.0,57,0.00,,,0.00,Wunderground v.1.13,2013-05-17 18:09:00,
2013-05-17 14:14:00,77.5,62.0,30.19,South,183,3.0,4.0,59,0.00,,,0.00,Wunderground v.1.13,2013-05-17 18:14:00,
2013-05-17 14:19:00,77.4,61.5,30.19,SSE,159,0.0,3.0,58,0.00,,,0.00,Wunderground v.1.13,2013-05-17 18:19:00,
2013-05-17 14:24:00,77.9,62.4,30.18,SSE,161,5.0,5.0,59,0.00,,,0.00,Wunderground v.1.13,2013-05-17 18:24:00,
2013-05-17 14:29:00,78.4,61.9,30.18,SSE,164,0.0,4.0,57,0.00,,,0.00,Wunderground v.1.13,2013-05-17 18:29:00,
2013-05-17 14:34:00,78.7,61.2,30.19,South,170,0.0,4.0,55,0.00,,,0.00,Wunderground v.1.13,2013-05-17 18:34:00,
2013-05-17 14:39:00,78.7,60.1,30.18,South,181,0.0,2.0,53,0.00,,,0.00,Wunderground v.1.13,2013-05-17 18:39:00,
2013-05-17 14:44:00,78.6,61.6,30.18,South,181,0.0,1.0,56,0.00,,,0.00,Wunderground v.1.13,2013-05-17 18:44:00,
2013-05-17 14:49:00,77.8,58.8,30.18,SSE,162,1.0,3.0,52,0.00,,,0.00,Wunderground v.1.13,2013-05-17 18:49:00,
2013-05-17 14:54:00,76.8,59.4,30.18,South,174,0.0,3.0,55,0.00,,,0.00,Wunderground v.1.13,2013-05-17 18:54:00,
2013-05-17 14:59:00,76.3,58.9,30.18,South,175,0.0,1.0,55,0.00,,,0.00,Wunderground v.1.13,2013-05-17 18:59:00,
2013-05-17 15:04:00,75.9,60.1,30.18,South,169,0.0,5.0,58,0.00,,,0.00,Wunderground v.1.13,2013-05-17 19:04:00,
2013-05-17 15:09:00,75.6,59.8,30.18,South,169,0.0,1.0,58,0.00,,,0.00,Wunderground v.1.13,2013-05-17 19:09:00,
2013-05-17 15:14:00,75.6,61.2,30.18,South,180,0.0,2.0,61,0.00,,,0.00,Wunderground v.1.13,2013-05-17 19:14:00,
2013-05-17 15:19:00,76.0,60.6,30.18,South,182,0.0,2.0,59,0.00,,,0.00,Wunderground v.1.13,2013-05-17 19:19:00,
2013-05-17 15:24:00,76.4,61.0,30.17,South,182,0.0,1.0,59,0.00,,,0.00,Wunderground v.1.13,2013-05-17 19:24:00,
2013-05-17 15:30:00,76.6,59.7,30.17,South,184,1.0,1.0,56,0.00,,,0.00,Wunderground v.1.13,2013-05-17 19:30:00,
2013-05-17 15:35:00,76.6,60.2,30.17,South,182,0.0,0.0,57,0.00,,,0.00,Wunderground v.1.13,2013-05-17 19:35:00,
2013-05-17 15:39:00,76.9,61.5,30.17,SSE,164,0.0,2.0,59,0.00,,,0.00,Wunderground v.1.13,2013-05-17 19:39:00,
2013-05-17 15:44:00,77.1,60.7,30.17,South,183,2.0,4.0,57,0.00,,,0.00,Wunderground v.1.13,2013-05-17 19:44:00,
2013-05-17 15:50:00,77.1,61.7,30.16,SW,227,1.0,1.0,59,0.00,,,0.00,Wunderground v.1.13,2013-05-17 19:50:00,
2013-05-17 15:55:00,77.2,62.7,30.16,SSW,196,0.0,1.0,61,0.00,,,0.00,Wunderground v.1.13,2013-05-17 19:55:00,
2013-05-17 16:00:00,77.6,60.7,30.16,South,188,1.0,2.0,56,0.00,,,0.00,Wunderground v.1.13,2013-05-17 20:00:00,
2013-05-17 16:05:00,77.5,61.1,30.16,South,190,1.0,2.0,57,0.00,,,0.00,Wunderground v.1.13,2013-05-17 20:05:00,
2013-05-17 16:10:00,77.9,61.9,30.16,South,182,0.0,1.0,58,0.00,,,0.00,Wunderground v.1.13,2013-05-17 20:10:00,
2013-05-17 16:15:00,78.0,61.5,30.16,South,173,1.0,1.0,57,0.00,,,0.00,Wunderground v.1.13,2013-05-17 20:15:00,
2013-05-17 16:20:00,77.8,61.8,30.16,South,178,1.0,4.0,58,0.00,,,0.00,Wunderground v.1.13,2013-05-17 20:20:00,
2013-05-17 16:25:00,76.8,60.9,30.16,SSW,192,0.0,1.0,58,0.00,,,0.00,Wunderground v.1.13,2013-05-17 20:25:00,
2013-05-17 16:30:00,76.1,63.0,30.16,SSW,192,0.0,1.0,64,0.00,,,0.00,Wunderground v.1.13,2013-05-17 20:30:00,
2013-05-17 16:35:00,75.6,62.1,30.16,South,171,0.0,0.0,63,0.00,,,0.00,Wunderground v.1.13,2013-05-17 20:35:00,
2013-05-17 16:40:00,75.4,62.4,30.16,South,171,0.0,0.0,64,0.00,,,0.00,Wunderground v.1.13,2013-05-17 20:40:00,
2013-05-17 16:45:00,75.3,60.9,30.16,SSW,205,0.0,0.0,61,0.00,,,0.00,Wunderground v.1.13,2013-05-17 20:45:00,
2013-05-17 16:50:00,75.1,60.7,30.15,SSW,202,0.0,0.0,61,0.00,,,0.00,Wunderground v.1.13,2013-05-17 20:50:00,
2013-05-17 16:55:00,75.1,60.7,30.16,South,182,0.0,0.0,61,0.00,,,0.00,Wunderground v.1.13,2013-05-17 20:55:00,
2013-05-17 17:00:00,75.2,60.8,30.16,South,182,0.0,1.0,61,0.00,,,0.00,Wunderground v.1.13,2013-05-17 21:00:00,
2013-05-17 17:05:00,75.0,59.2,30.16,South,182,0.0,0.0,58,0.00,,,0.00,Wunderground v.1.13,2013-05-17 21:05:00,
2013-05-17 17:10:00,74.6,59.3,30.16,South,188,0.0,1.0,59,0.00,,,0.00,Wunderground v.1.13,2013-05-17 21:10:00,
2013-05-17 17:15:00,74.3,58.6,30.16,SSW,196,0.0,1.0,58,0.00,,,0.00,Wunderground v.1.13,2013-05-17 21:15:00,
2013-05-17 17:20:00,74.3,59.5,30.16,SSW,196,0.0,0.0,60,0.00,,,0.00,Wunderground v.1.13,2013-05-17 21:20:00,
2013-05-17 17:25:00,74.4,59.6,30.16,SSW,196,0.0,0.0,60,0.00,,,0.00,Wunderground v.1.13,2013-05-17 21:25:00,
2013-05-17 17:30:00,74.6,59.3,30.16,WNW,284,0.0,0.0,59,0.00,,,0.00,Wunderground v.1.13,2013-05-17 21:30:00,
2013-05-17 17:35:00,74.7,56.9,30.16,WNW,284,0.0,0.0,54,0.00,,,0.00,Wunderground v.1.13,2013-05-17 21:35:00,
2013-05-17 17:41:00,74.7,56.4,30.16,South,173,0.0,0.0,53,0.00,,,0.00,Wunderground v.1.13,2013-05-17 21:41:00,
2013-05-17 17:46:00,74.7,55.9,30.16,SSW,198,0.0,3.0,52,0.00,,,0.00,Wunderground v.1.13,2013-05-17 21:46:00,
2013-05-17 17:51:00,75.0,58.2,30.16,SSW,197,0.0,1.0,56,0.00,,,0.00,Wunderground v.1.13,2013-05-17 21:51:00,
2013-05-17 17:56:00,75.1,55.7,30.16,South,183,0.0,1.0,51,0.00,,,0.00,Wunderground v.1.13,2013-05-17 21:56:00,
2013-05-17 18:01:00,75.2,56.4,30.16,South,180,1.0,1.0,52,0.00,,,0.00,Wunderground v.1.13,2013-05-17 22:01:00,
2013-05-17 18:06:00,75.4,57.6,30.16,South,188,2.0,2.0,54,0.00,,,0.00,Wunderground v.1.13,2013-05-17 22:06:00,
2013-05-17 18:11:00,75.3,56.5,30.16,SSW,213,0.0,1.0,52,0.00,,,0.00,Wunderground v.1.13,2013-05-17 22:11:00,
2013-05-17 18:16:00,75.1,56.3,30.16,SSW,197,1.0,1.0,52,0.00,,,0.00,Wunderground v.1.13,2013-05-17 22:16:00,
2013-05-17 18:21:00,74.8,54.9,30.16,South,181,0.0,4.0,50,0.00,,,0.00,Wunderground v.1.13,2013-05-17 22:21:00,
2013-05-17 18:26:00,74.8,56.0,30.16,South,182,0.0,2.0,52,0.00,,,0.00,Wunderground v.1.13,2013-05-17 22:26:00,
2013-05-17 18:31:00,75.1,56.8,30.16,South,182,0.0,1.0,53,0.00,,,0.00,Wunderground v.1.13,2013-05-17 22:31:00,
2013-05-17 18:36:00,75.2,56.4,30.16,South,184,0.0,6.0,52,0.00,,,0.00,Wunderground v.1.13,2013-05-17 22:36:00,
2013-05-17 18:41:00,75.0,55.6,30.16,West,273,1.0,2.0,51,0.00,,,0.00,Wunderground v.1.13,2013-05-17 22:41:00,
2013-05-17 18:46:00,74.7,54.8,30.16,SSW,211,1.0,1.0,50,0.00,,,0.00,Wunderground v.1.13,2013-05-17 22:46:00,
2013-05-17 18:51:00,74.3,56.1,30.16,SSE,159,0.0,0.0,53,0.00,,,0.00,Wunderground v.1.13,2013-05-17 22:51:00,
2013-05-17 18:56:00,74.1,54.8,30.16,SSE,159,0.0,1.0,51,0.00,,,0.00,Wunderground v.1.13,2013-05-17 22:56:00,
2013-05-17 19:01:00,73.6,53.8,30.16,South,189,0.0,2.0,50,0.00,,,0.00,Wunderground v.1.13,2013-05-17 23:01:00,
2013-05-17 19:06:00,73.2,54.0,30.16,South,189,0.0,1.0,51,0.00,,,0.00,Wunderground v.1.13,2013-05-17 23:06:00,
2013-05-17 19:11:00,72.9,54.8,30.16,South,189,0.0,1.0,53,0.00,,,0.00,Wunderground v.1.13,2013-05-17 23:11:00,
2013-05-17 19:16:00,72.5,54.9,30.16,South,189,0.0,0.0,54,0.00,,,0.00,Wunderground v.1.13,2013-05-17 23:16:00,
2013-05-17 19:21:00,72.2,55.1,30.16,South,189,0.0,0.0,55,0.00,,,0.00,Wunderground v.1.13,2013-05-17 23:21:00,
2013-05-17 19:26:00,72.1,56.0,30.16,South,189,0.0,0.0,57,0.00,,,0.00,Wunderground v.1.13,2013-05-17 23:26:00,
2013-05-17 19:31:00,71.8,54.8,30.16,South,189,0.0,1.0,55,0.00,,,0.00,Wunderground v.1.13,2013-05-17 23:31:00,
2013-05-17 19:37:00,71.6,55.6,30.16,South,189,0.0,0.0,57,0.00,,,0.00,Wunderground v.1.13,2013-05-17 23:37:00,
2013-05-17 19:42:00,71.4,55.9,30.16,South,189,0.0,0.0,58,0.00,,,0.00,Wunderground v.1.13,2013-05-17 23:42:00,
2013-05-17 19:47:00,71.3,56.2,30.16,South,189,0.0,0.0,59,0.00,,,0.00,Wunderground v.1.13,2013-05-17 23:47:00,
2013-05-17 19:52:00,71.1,56.0,30.16,South,189,0.0,0.0,59,0.00,,,0.00,Wunderground v.1.13,2013-05-17 23:52:00,
2013-05-17 19:57:00,70.9,56.3,30.16,South,189,0.0,0.0,60,0.00,,,0.00,Wunderground v.1.13,2013-05-17 23:57:00,
2013-05-17 20:02:00,70.6,56.5,30.17,South,189,0.0,0.0,61,0.00,,,0.00,Wunderground v.1.13,2013-05-18 00:02:00,
2013-05-17 20:07:00,70.3,55.8,30.17,South,189,0.0,0.0,60,0.00,,,0.00,Wunderground v.1.13,2013-05-18 00:07:00,
2013-05-17 20:12:00,70.0,55.9,30.17,South,189,0.0,0.0,61,0.00,,,0.00,Wunderground v.1.13,2013-05-18 00:12:00,
2013-05-17 20:17:00,69.6,55.1,30.17,South,189,0.0,0.0,60,0.00,,,0.00,Wunderground v.1.13,2013-05-18 00:17:00,
2013-05-17 20:22:00,69.3,55.7,30.17,South,189,0.0,0.0,62,0.00,,,0.00,Wunderground v.1.13,2013-05-18 00:22:00,
2013-05-17 20:27:00,69.0,55.4,30.17,South,189,0.0,0.0,62,0.00,,,0.00,Wunderground v.1.13,2013-05-18 00:27:00,
2013-05-17 20:32:00,68.7,55.6,30.17,South,189,0.0,0.0,63,0.00,,,0.00,Wunderground v.1.13,2013-05-18 00:32:00,
2013-05-17 20:37:00,68.4,55.7,30.18,South,189,0.0,0.0,64,0.00,,,0.00,Wunderground v.1.13,2013-05-18 00:37:00,
2013-05-17 20:42:00,68.2,55.1,30.18,South,189,0.0,0.0,63,0.00,,,0.00,Wunderground v.1.13,2013-05-18 00:42:00,
2013-05-17 20:47:00,68.1,55.5,30.17,South,189,0.0,0.0,64,0.00,,,0.00,Wunderground v.1.13,2013-05-18 00:47:00,
2013-05-17 20:53:00,68.0,55.8,30.18,South,189,0.0,0.0,65,0.00,,,0.00,Wunderground v.1.13,2013-05-18 00:53:00,
2013-05-17 20:58:00,68.0,55.8,30.18,South,189,0.0,0.0,65,0.00,,,0.00,Wunderground v.1.13,2013-05-18 00:58:00,
2013-05-17 21:03:00,67.9,56.1,30.17,South,189,0.0,0.0,66,0.00,,,0.00,Wunderground v.1.13,2013-05-18 01:03:00,
2013-05-17 21:08:00,67.8,56.0,30.17,South,189,0.0,0.0,66,0.00,,,0.00,Wunderground v.1.13,2013-05-18 01:08:00,
2013-05-17 21:13:00,67.8,56.4,30.18,South,189,0.0,0.0,67,0.00,,,0.00,Wunderground v.1.13,2013-05-18 01:13:00,
2013-05-17 21:18:00,67.7,55.9,30.18,South,189,0.0,0.0,66,0.00,,,0.00,Wunderground v.1.13,2013-05-18 01:18:00,
2013-05-17 21:23:00,67.7,56.3,30.17,South,189,0.0,0.0,67,0.00,,,0.00,Wunderground v.1.13,2013-05-18 01:23:00,
2013-05-17 21:28:00,67.6,56.2,30.18,South,189,0.0,0.0,67,0.00,,,0.00,Wunderground v.1.13,2013-05-18 01:28:00,
2013-05-17 21:33:00,67.4,56.1,30.18,South,189,0.0,1.0,67,0.00,,,0.00,Wunderground v.1.13,2013-05-18 01:33:00,
2013-05-17 21:38:00,67.3,56.0,30.18,South,189,0.0,0.0,67,0.00,,,0.00,Wunderground v.1.13,2013-05-18 01:38:00,
2013-05-17 21:43:00,67.2,56.3,30.18,South,189,0.0,0.0,68,0.00,,,0.00,Wunderground v.1.13,2013-05-18 01:43:00,
2013-05-17 21:48:00,67.2,56.3,30.18,South,189,0.0,1.0,68,0.00,,,0.00,Wunderground v.1.13,2013-05-18 01:48:00,
2013-05-17 21:53:00,67.1,56.2,30.18,South,189,0.0,0.0,68,0.00,,,0.00,Wunderground v.1.13,2013-05-18 01:53:00,
2013-05-17 21:58:00,67.0,56.1,30.18,South,189,0.0,0.0,68,0.00,,,0.00,Wunderground v.1.13,2013-05-18 01:58:00,
2013-05-17 22:03:00,66.9,56.0,30.18,South,189,0.0,0.0,68,0.00,,,0.00,Wunderground v.1.13,2013-05-18 02:03:00,
2013-05-17 22:08:00,66.8,56.3,30.18,South,189,0.0,0.0,69,0.00,,,0.00,Wunderground v.1.13,2013-05-18 02:08:00,
2013-05-17 22:13:00,66.8,56.3,30.18,South,189,0.0,0.0,69,0.00,,,0.00,Wunderground v.1.13,2013-05-18 02:13:00,
2013-05-17 22:18:00,66.8,56.3,30.18,South,189,0.0,0.0,69,0.00,,,0.00,Wunderground v.1.13,2013-05-18 02:18:00,
2013-05-17 22:23:00,66.7,56.6,30.19,South,189,0.0,0.0,70,0.00,,,0.00,Wunderground v.1.13,2013-05-18 02:23:00,
2013-05-17 22:28:00,66.7,56.6,30.19,South,189,0.0,0.0,70,0.00,,,0.00,Wunderground v.1.13,2013-05-18 02:28:00,
2013-05-17 22:33:00,66.6,56.5,30.19,South,189,0.0,0.0,70,0.00,,,0.00,Wunderground v.1.13,2013-05-18 02:33:00,
2013-05-17 22:38:00,66.6,56.5,30.19,South,189,0.0,0.0,70,0.00,,,0.00,Wunderground v.1.13,2013-05-18 02:38:00,
2013-05-17 22:43:00,66.6,56.9,30.19,South,189,0.0,0.0,71,0.00,,,0.00,Wunderground v.1.13,2013-05-18 02:43:00,
2013-05-17 22:48:00,66.7,57.0,30.19,South,189,0.0,0.0,71,0.00,,,0.00,Wunderground v.1.13,2013-05-18 02:48:00,
2013-05-17 22:53:00,66.7,57.0,30.19,South,189,0.0,0.0,71,0.00,,,0.00,Wunderground v.1.13,2013-05-18 02:53:00,
2013-05-17 22:58:00,66.7,56.6,30.19,SSW,197,0.0,0.0,70,0.00,,,0.00,Wunderground v.1.13,2013-05-18 02:58:00,
2013-05-17 23:03:00,66.8,56.7,30.19,SSW,198,0.0,1.0,70,0.00,,,0.00,Wunderground v.1.13,2013-05-18 03:03:00,
2013-05-17 23:08:00,66.7,56.6,30.19,SSW,194,0.0,1.0,70,0.00,,,0.00,Wunderground v.1.13,2013-05-18 03:08:00,
2013-05-17 23:13:00,66.7,57.0,30.19,South,190,0.0,0.0,71,0.00,,,0.00,Wunderground v.1.13,2013-05-18 03:13:00,
2013-05-17 23:19:00,66.6,57.3,30.19,South,190,0.0,0.0,72,0.00,,,0.00,Wunderground v.1.13,2013-05-18 03:19:00,
2013-05-17 23:24:00,66.5,57.2,30.19,South,173,1.0,3.0,72,0.00,,,0.00,Wunderground v.1.13,2013-05-18 03:24:00,
2013-05-17 23:29:00,66.4,57.1,30.19,South,173,0.0,0.0,72,0.00,,,0.00,Wunderground v.1.13,2013-05-18 03:29:00,
2013-05-17 23:34:00,66.4,57.5,30.19,South,173,0.0,0.0,73,0.00,,,0.00,Wunderground v.1.13,2013-05-18 03:34:00,
2013-05-17 23:39:00,66.3,59.2,30.19,South,173,0.0,0.0,78,0.00,,,0.00,Wunderground v.1.13,2013-05-18 03:39:00,
2013-05-17 23:44:00,66.1,59.7,30.19,South,173,0.0,0.0,80,0.00,,,0.00,Wunderground v.1.13,2013-05-18 03:44:00,
2013-05-17 23:49:00,65.7,59.7,30.19,South,173,0.0,0.0,81,0.00,,,0.01,Wunderground v.1.13,2013-05-18 03:49:00,
2013-05-17 23:54:00,65.0,59.4,30.19,South,173,0.0,0.0,82,0.00,,,0.01,Wunderground v.1.13,2013-05-18 03:54:00,
2013-05-17 23:59:00,64.5,59.2,30.19,South,173,0.0,0.0,83,0.00,,,0.01,Wunderground v.1.13,2013-05-18 03:59:00,